Hlavní strana
METAR-TAF:

METAR-TAF

Letiště :

Elista, Rusko

zeměpisná šířka: 46-22N, zeměpisná délka: 044-20E, výška: 150 m

Aktuální stav počasí

Zpráva byla vytvořena před 35 minutami, v 15:30 UTC
Západojihozápadní vítr 8 kt
Teplota 12°C
Vlhkost vzduchu 82%
Tlak 1012 hPa
Viditelnost 10 km a více

METAR: URWI 241530Z AUTO 25004MPS 9999 // ///////// 12/09 Q1012

Čas: 20:05 (16:05 UTC)

Předpověď počasí

Zpráva byla vytvořena před 5 hodinami a 9 minutami, v 10:56 UTC
Předpověď platná od 24 v 12 UTC do 24 v 21 UTC
Západoseverozápadní vítr 6 kt s nárazy do 19 kt
Viditelnost 10 km a více
Polojasno ve výšce 1600 ft
Polojasno ve výšce 3000 ft, Cumulonimbus.
Dočasný
od 24 v 12 UTC do 24 v 15 UTC
Západní vítr 12 kt s nárazy do 23 kt
Skoro jasno ve výšce 400 ft
Oblačno až skoro zataženo ve výšce 3000 ft, Cumulonimbus.
slabé dešťové přeháňky

TAF: URWI 241056Z 2412/2421 30003G10MPS 9999 SCT016 SCT030CB TEMPO 2412/2415 26006G12MPS -SHRA FEW004 BKN030CB

Stav a předpovědi počasí z více než 4 000 letišť (zprávy METAR a TAF).

Červené a žluté tečky na mapě představují dostupné meteorologické stanice.

Když kurzor umístíte na tečku, zobrazí se název stanice.

Pak kliknutím zobrazíte stav a předpověď počasí.

Chcete-li změnit mapu, kliknutím na zelené tlačítko se znaménkem +mapu přiblížíte, kliknutím na zelené tlačítko se znaménkem – mapu oddálíte a kliknutím na zelené šipky přejdete na sousední mapy.


METAR-TAF: